Main page
METAR-TAF:

METAR-TAF

Airports :

Brest Airport

Brest, Belarus

latitude: 52-06-30N, longitude: 023-53-48E, elevation: 143 m

Current weather observation

The report was made 5 hours and 10 minutes ago, at 13:00 UTC
Wind 4 kt from the East
Temperature 21°C
Humidity 43%
Pressure 1014 hPa
Visibility: 8000 m
Broken clouds at a height of 6000 ft

METAR: UMBB 151300Z 08002MPS 8000 BKN060 21/08 Q1014 NOSIG

Time: 21:10 (18:10 UTC)

Forecast

The report was made 7 hours and 10 minutes ago, at 11:00 UTC
Forecast valid from 15 at 12 UTC to 15 at 21 UTC
Wind 4 kt from variable directions
Visibility 10 km or more
Scattered clouds at a height of 3000 ft

TAF: UMBB 151100Z 1512/1521 VRB02MPS 9999 SCT030

Weather observations and forecasts of more than 4000 airports (METAR and TAF reports).

The available stations are represented by yellow and red dots on the map.

Hover mouse over dot to see the name of the station.

Then click to see weather observations and forecasts.

To change the map : click on the green buttons with a black cross to zoom in, on the green button with a dash to zoom out, or on the green arrows for adjacent maps.


METAR-TAF: